Time;durP1;ratioP1;P1;durP2;ratioP2;P2;SDS_P1;SDS_P2;PMS_P1;PMS_P2;Temp;Humidity;BMP_temperature;BMP_pressure;BME280_temperature;BME280_humidity;BME280_pressure;Samples;Min_cycle;Max_cycle;Signal;HPM_P1;HPM_P2
2024/02/24 00:00:36;;;;;;;2.05;1.38;;;;;;;15.84;nan;97145.28;7391232;19;20015;-53
2024/02/24 00:03:02;;;;;;;0.90;0.60;;;;;;;15.35;nan;97151.69;7389195;19;20066;-53
2024/02/24 00:05:28;;;;;;;1.35;1.13;;;;;;;15.36;nan;97146.81;7390199;19;20018;-53
2024/02/24 00:07:54;;;;;;;2.60;1.35;;;;;;;15.07;nan;97150.03;7394279;19;20002;-54
2024/02/24 00:10:21;;;;;;;3.38;2.00;;;;;;;15.51;nan;97141.84;7391905;19;20019;-53
2024/02/24 00:12:49;;;;;;;2.50;1.40;;;;;;;16.00;nan;97146.59;7393087;19;20023;-53
2024/02/24 00:15:15;;;;;;;0.98;0.98;;;;;;;16.41;nan;97148.56;7394887;19;20509;-53
2024/02/24 00:17:41;;;;;;;2.55;1.33;;;;;;;16.72;nan;97162.22;7392901;19;20053;-53
2024/02/24 00:20:08;;;;;;;2.28;1.75;;;;;;;16.86;nan;97163.34;7393061;19;20018;-53
2024/02/24 00:22:35;;;;;;;7.32;2.85;;;;;;;16.18;nan;97161.34;7392468;19;20017;-53
2024/02/24 00:25:02;;;;;;;27.60;3.03;;;;;;;16.27;nan;97164.25;7390789;19;20033;-53
2024/02/24 00:27:29;;;;;;;2.22;2.10;;;;;;;15.94;nan;97166.50;7391669;19;21182;-53
2024/02/24 00:29:55;;;;;;;5.50;2.60;;;;;;;15.39;nan;97173.72;7395069;19;20339;-53
2024/02/24 00:32:21;;;;;;;6.13;1.85;;;;;;;13.94;nan;97183.41;7397109;19;20015;-53
2024/02/24 00:34:47;;;;;;;4.65;2.17;;;;;;;13.26;nan;97191.84;7392590;19;20010;-53
2024/02/24 00:37:13;;;;;;;5.13;1.90;;;;;;;15.20;nan;97189.00;7396028;19;20015;-53
2024/02/24 00:39:39;;;;;;;8.18;2.95;;;;;;;15.22;nan;97182.06;7403421;19;20007;-53
2024/02/24 00:42:07;;;;;;;7.68;2.65;;;;;;;15.33;nan;97182.38;7399114;19;20025;-53
2024/02/24 00:44:33;;;;;;;12.35;2.08;;;;;;;16.18;nan;97176.16;7398558;19;20011;-53
2024/02/24 00:46:59;;;;;;;11.40;3.05;;;;;;;18.98;nan;97177.91;7398097;19;20018;-53
2024/02/24 00:49:25;;;;;;;2.00;1.30;;;;;;;18.88;nan;97188.50;7403042;19;20011;-53
2024/02/24 00:51:51;;;;;;;3.65;2.00;;;;;;;18.87;nan;97195.44;7399778;19;20014;-53
2024/02/24 00:54:18;;;;;;;3.78;2.17;;;;;;;18.96;nan;97194.69;7399791;19;20078;-53
2024/02/24 00:56:44;;;;;;;4.50;1.67;;;;;;;19.07;nan;97194.06;7397726;19;20024;-53
2024/02/24 00:59:10;;;;;;;2.47;1.10;;;;;;;19.15;nan;97188.25;7402225;19;20014;-53
2024/02/24 01:01:36;;;;;;;2.53;2.33;;;;;;;19.44;nan;97181.19;7398562;19;20020;-53
2024/02/24 01:04:03;;;;;;;1.60;1.48;;;;;;;19.67;nan;97178.56;7398204;19;20367;-53
2024/02/24 01:06:29;;;;;;;1.15;1.05;;;;;;;20.92;nan;97178.31;7399063;19;20010;-53
2024/02/24 01:08:55;;;;;;;2.83;1.83;;;;;;;21.54;nan;97178.69;7401681;19;20481;-53
2024/02/24 01:11:21;;;;;;;1.65;0.90;;;;;;;22.22;nan;97176.38;7398922;19;20014;-53
2024/02/24 01:13:47;;;;;;;7.82;2.80;;;;;;;22.38;nan;97173.75;7397607;19;20018;-53
2024/02/24 01:16:13;;;;;;;1.45;1.35;;;;;;;21.67;nan;97180.91;7396882;19;20002;-53
2024/02/24 01:18:39;;;;;;;5.20;2.20;;;;;;;21.11;nan;97188.75;7397018;19;20031;-53
2024/02/24 01:21:05;;;;;;;13.65;2.63;;;;;;;19.24;nan;97190.31;7398428;19;20483;-53
2024/02/24 01:23:32;;;;;;;5.05;2.47;;;;;;;18.36;nan;97195.94;7395300;19;20018;-53
2024/02/24 01:25:58;;;;;;;4.75;1.92;;;;;;;19.71;nan;97185.84;7395800;19;20043;-53
2024/02/24 01:28:24;;;;;;;2.67;0.95;;;;;;;19.25;nan;97197.44;7396172;19;20022;-53
2024/02/24 01:30:50;;;;;;;10.18;1.77;;;;;;;18.42;nan;97204.81;7399060;19;20070;-53
2024/02/24 01:33:17;;;;;;;3.72;1.05;;;;;;;18.03;nan;97204.81;7397842;19;20029;-53
2024/02/24 01:35:43;;;;;;;1.20;0.95;;;;;;;17.81;nan;97197.50;7398510;19;20006;-53
2024/02/24 01:38:09;;;;;;;11.77;2.47;;;;;;;17.68;nan;97192.28;7397308;19;20011;-53
2024/02/24 01:40:35;;;;;;;1.65;1.23;;;;;;;17.65;nan;97204.69;7397264;19;20014;-53
2024/02/24 01:43:02;;;;;;;0.80;0.80;;;;;;;17.41;nan;97197.22;7397781;19;20014;-53
2024/02/24 01:45:28;;;;;;;0.70;0.70;;;;;;;17.50;nan;97201.38;7399047;19;20010;-53
2024/02/24 01:47:56;;;;;;;1.50;1.50;;;;;;;15.57;nan;97200.53;7396776;19;20025;-53
2024/02/24 01:50:24;;;;;;;6.57;2.65;;;;;;;17.38;nan;97204.00;7397950;19;20062;-53
2024/02/24 01:52:50;;;;;;;2.85;1.08;;;;;;;17.65;nan;97203.97;7396571;19;20018;-53
2024/02/24 01:55:18;;;;;;;1.40;1.30;;;;;;;16.04;nan;97203.06;7398199;19;20324;-53
2024/02/24 01:57:45;;;;;;;1.08;0.98;;;;;;;15.75;nan;97199.22;7396842;19;20454;-53
2024/02/24 02:00:12;;;;;;;1.15;0.98;;;;;;;16.45;nan;97202.25;7397051;19;20011;-53
2024/02/24 02:02:45;;;;;;;0.65;0.65;;;;;;;16.67;nan;97211.75;7397467;19;20011;-53
2024/02/24 02:05:12;;;;;;;6.70;1.15;;;;;;;15.90;nan;97221.53;7396550;19;20025;-53
2024/02/24 02:07:38;;;;;;;4.18;2.35;;;;;;;15.63;nan;97220.69;7397374;19;20082;-53
2024/02/24 02:10:05;;;;;;;2.25;1.92;;;;;;;15.68;nan;97225.31;7397542;19;20013;-53
2024/02/24 02:12:34;;;;;;;1.23;1.10;;;;;;;15.77;nan;97227.47;7396269;19;20359;-53
2024/02/24 02:15:00;;;;;;;0.60;0.60;;;;;;;15.68;nan;97222.50;7398331;19;20014;-53
2024/02/24 02:17:27;;;;;;;1.95;1.02;;;;;;;16.34;nan;97225.22;7398305;19;20029;-53
2024/02/24 02:19:59;;;;;;;0.90;0.90;;;;;;;17.03;nan;97227.94;7397525;19;20010;-53
2024/02/24 02:22:25;;;;;;;1.77;0.90;;;;;;;17.17;nan;97223.44;7396245;19;20010;-53
2024/02/24 02:24:51;;;;;;;3.92;1.73;;;;;;;17.65;nan;97218.06;7394547;19;20014;-53
2024/02/24 02:27:18;;;;;;;2.53;1.65;;;;;;;17.08;nan;97224.13;7395738;19;20328;-53
2024/02/24 02:29:44;;;;;;;1.50;1.33;;;;;;;17.75;nan;97235.69;7397672;19;20011;-53
2024/02/24 02:32:10;;;;;;;2.90;1.48;;;;;;;17.51;nan;97236.66;7399584;19;20014;-53
2024/02/24 02:34:36;;;;;;;0.40;0.40;;;;;;;16.62;nan;97233.16;7395524;19;20014;-53
2024/02/24 02:37:02;;;;;;;2.53;1.13;;;;;;;16.20;nan;97238.09;7396369;19;20439;-53
2024/02/24 02:39:29;;;;;;;7.45;1.42;;;;;;;16.45;nan;97241.56;7395982;19;20014;-53
2024/02/24 02:41:55;;;;;;;1.65;1.40;;;;;;;17.67;nan;97241.44;7397729;19;20459;-53
2024/02/24 02:44:21;;;;;;;1.77;0.82;;;;;;;17.45;nan;97250.97;7394645;19;20653;-53
2024/02/24 02:46:49;;;;;;;4.03;1.83;;;;;;;17.00;nan;97251.63;7395388;19;20022;-54
2024/02/24 02:49:15;;;;;;;1.27;1.15;;;;;;;17.00;nan;97252.34;7395983;19;20031;-53
2024/02/24 02:51:41;;;;;;;2.72;1.08;;;;;;;17.00;nan;97248.81;7395202;19;20338;-53
2024/02/24 02:54:07;;;;;;;1.48;0.80;;;;;;;16.95;nan;97247.00;7394416;19;20010;-53
2024/02/24 02:56:34;;;;;;;2.45;1.63;;;;;;;17.05;nan;97250.59;7395617;19;20070;-53
2024/02/24 02:59:00;;;;;;;0.65;0.65;;;;;;;17.15;nan;97254.22;7395157;19;20372;-53
2024/02/24 03:01:26;;;;;;;10.13;2.40;;;;;;;17.18;nan;97248.16;7392682;19;20025;-53
2024/02/24 03:03:52;;;;;;;1.35;1.35;;;;;;;18.18;nan;97246.03;7394084;19;20487;-53
2024/02/24 03:06:18;;;;;;;0.77;0.77;;;;;;;18.31;nan;97242.78;7397121;19;20366;-53
2024/02/24 03:08:44;;;;;;;1.75;0.93;;;;;;;17.62;nan;97242.47;7395595;19;20074;-53
2024/02/24 03:11:16;;;;;;;1.73;1.08;;;;;;;17.42;nan;97240.88;7395373;19;20007;-53
2024/02/24 03:13:42;;;;;;;2.40;0.80;;;;;;;17.33;nan;97235.94;7395099;19;20014;-53
2024/02/24 03:16:08;;;;;;;1.08;0.68;;;;;;;17.41;nan;97237.31;7398677;19;20011;-53
2024/02/24 03:18:34;;;;;;;1.80;0.98;;;;;;;17.32;nan;97237.28;7394666;19;20010;-53
2024/02/24 03:21:00;;;;;;;4.18;1.95;;;;;;;17.32;nan;97242.91;7394400;19;20066;-54
2024/02/24 03:23:26;;;;;;;1.40;1.10;;;;;;;17.72;nan;97242.50;7394327;19;20458;-53
2024/02/24 03:25:52;;;;;;;1.90;1.35;;;;;;;18.92;nan;97242.34;7395404;19;20027;-53
2024/02/24 03:28:18;;;;;;;2.20;1.50;;;;;;;19.03;nan;97243.81;7395150;19;20015;-54
2024/02/24 03:30:44;;;;;;;8.63;1.65;;;;;;;19.25;nan;97245.41;7395068;19;20451;-53
2024/02/24 03:33:12;;;;;;;1.92;1.33;;;;;;;19.48;nan;97246.41;7394173;19;20014;-53
2024/02/24 03:35:39;;;;;;;2.50;1.90;;;;;;;19.46;nan;97251.91;7393563;19;20732;-53
2024/02/24 03:38:05;;;;;;;3.47;1.17;;;;;;;20.27;nan;97243.34;7395159;19;20015;-54
2024/02/24 03:40:31;;;;;;;1.98;1.10;;;;;;;19.97;nan;97252.56;7394161;19;20014;-53
2024/02/24 03:42:58;;;;;;;8.95;1.35;;;;;;;19.86;nan;97261.72;7394925;19;20089;-53
2024/02/24 03:45:25;;;;;;;3.22;2.15;;;;;;;19.74;nan;97264.44;7395376;19;20015;-53
2024/02/24 03:47:51;;;;;;;1.20;1.10;;;;;;;19.80;nan;97269.75;7393619;19;20015;-54
2024/02/24 03:50:17;;;;;;;4.30;1.60;;;;;;;19.61;nan;97268.50;7398704;19;20481;-53
2024/02/24 03:52:43;;;;;;;0.80;0.57;;;;;;;20.03;nan;97281.25;7393711;19;20066;-54
2024/02/24 03:55:09;;;;;;;1.13;1.02;;;;;;;21.33;nan;97274.31;7393316;19;20007;-54
2024/02/24 03:57:35;;;;;;;2.38;1.45;;;;;;;21.89;nan;97266.53;7393395;19;20015;-54
2024/02/24 04:00:04;;;;;;;2.03;1.77;;;;;;;21.68;nan;97267.34;7396653;19;20026;-54
2024/02/24 04:02:40;;;;;;;6.03;2.65;;;;;;;21.18;nan;97277.63;7392688;19;20013;-54
2024/02/24 04:05:07;;;;;;;8.07;0.77;;;;;;;20.85;nan;97280.41;7391321;19;20462;-53
2024/02/24 04:07:33;;;;;;;1.05;1.00;;;;;;;21.62;nan;97274.75;7393203;19;20021;-54
2024/02/24 04:09:59;;;;;;;4.82;2.13;;;;;;;21.52;nan;97282.63;7395749;19;20010;-54
2024/02/24 04:12:25;;;;;;;0.52;0.52;;;;;;;21.48;nan;97276.69;7397434;19;20494;-53
2024/02/24 04:14:51;;;;;;;1.27;0.88;;;;;;;21.35;nan;97280.88;7402762;19;20018;-53
2024/02/24 04:17:17;;;;;;;6.28;3.03;;;;;;;21.25;nan;97280.19;7400961;19;20007;-54
2024/02/24 04:19:44;;;;;;;1.60;1.00;;;;;;;21.82;nan;97287.31;7404455;19;20466;-54
2024/02/24 04:22:10;;;;;;;10.55;3.03;;;;;;;22.39;nan;97286.56;7398835;19;20014;-54
2024/02/24 04:24:36;;;;;;;3.85;1.73;;;;;;;22.93;nan;97291.16;7398789;19;20014;-54
2024/02/24 04:27:02;;;;;;;0.30;0.30;;;;;;;23.27;nan;97281.75;7401115;19;20010;-54
2024/02/24 04:29:28;;;;;;;3.63;1.90;;;;;;;24.13;nan;97285.06;7401105;19;20063;-54
2024/02/24 04:31:54;;;;;;;7.65;3.80;;;;;;;25.01;nan;97294.56;7403385;19;20033;-54
2024/02/24 04:34:21;;;;;;;0.68;0.65;;;;;;;26.01;nan;97290.09;7400249;19;20354;-54
2024/02/24 04:36:47;;;;;;;1.42;1.42;;;;;;;25.94;nan;97294.03;7400266;19;20010;-54
2024/02/24 04:39:14;;;;;;;3.63;2.00;;;;;;;25.98;nan;97297.81;7400243;19;20412;-54
2024/02/24 04:41:40;;;;;;;1.90;1.42;;;;;;;25.36;nan;97289.88;7399206;19;20015;-53
2024/02/24 04:44:06;;;;;;;1.05;1.05;;;;;;;25.46;nan;97301.06;7402616;19;20070;-54
2024/02/24 04:46:34;;;;;;;0.60;0.60;;;;;;;25.23;nan;97312.75;7400096;19;20014;-54
2024/02/24 04:49:00;;;;;;;0.40;0.40;;;;;;;25.05;nan;97312.59;7399796;19;20015;-54
2024/02/24 04:51:26;;;;;;;6.82;2.55;;;;;;;25.92;nan;97308.19;7399513;19;20398;-54
2024/02/24 04:53:52;;;;;;;4.55;1.45;;;;;;;26.04;nan;97303.78;7398937;19;20018;-54
2024/02/24 04:56:18;;;;;;;1.55;1.13;;;;;;;25.11;nan;97321.41;7401926;19;20021;-54
2024/02/24 04:58:45;;;;;;;3.03;1.75;;;;;;;25.14;nan;97319.41;7399178;19;20021;-54
2024/02/24 05:01:11;;;;;;;3.50;2.25;;;;;;;25.03;nan;97325.97;7398709;19;20007;-54
2024/02/24 05:03:37;;;;;;;8.40;1.52;;;;;;;25.19;nan;97327.50;7399626;19;20007;-54
2024/02/24 05:06:05;;;;;;;0.93;0.90;;;;;;;25.15;nan;97320.88;7401767;19;20020;-54
2024/02/24 05:08:33;;;;;;;0.60;0.60;;;;;;;24.41;nan;97332.03;7398937;19;20010;-54
2024/02/24 05:11:00;;;;;;;7.18;1.20;;;;;;;23.58;nan;97336.09;7399335;19;20014;-53
2024/02/24 05:13:26;;;;;;;0.30;0.30;;;;;;;23.28;nan;97337.19;7399561;19;20470;-54
2024/02/24 05:15:52;;;;;;;15.13;2.55;;;;;;;23.21;nan;97341.03;7402848;19;20010;-54
2024/02/24 05:18:19;;;;;;;1.45;0.93;;;;;;;23.25;nan;97335.59;7399537;19;20014;-54
2024/02/24 05:20:45;;;;;;;2.17;0.73;;;;;;;23.13;nan;97334.91;7398679;19;20015;-54
2024/02/24 05:23:11;;;;;;;10.90;1.65;;;;;;;23.15;nan;97340.72;7396757;19;20074;-54
2024/02/24 05:25:37;;;;;;;0.85;0.60;;;;;;;24.68;nan;97340.56;7395649;19;20678;-54
2024/02/24 05:28:03;;;;;;;2.17;1.05;;;;;;;23.19;nan;97340.94;7400367;19;20470;-54
2024/02/24 05:30:29;;;;;;;2.08;1.00;;;;;;;22.88;nan;97340.53;7399274;19;20511;-54
2024/02/24 05:32:55;;;;;;;5.53;1.77;;;;;;;23.82;nan;97354.44;7397926;19;20010;-54
2024/02/24 05:35:21;;;;;;;0.50;0.50;;;;;;;24.87;nan;97348.69;7397273;19;20014;-54
2024/02/24 05:37:47;;;;;;;1.10;1.00;;;;;;;25.04;nan;97339.56;7397294;19;20011;-54
2024/02/24 05:40:15;;;;;;;2.55;1.45;;;;;;;25.69;nan;97346.34;7401290;19;20073;-54
2024/02/24 05:42:41;;;;;;;3.08;1.17;;;;;;;25.88;nan;97345.09;7398044;19;20483;-54
2024/02/24 05:45:08;;;;;;;7.43;1.88;;;;;;;26.08;nan;97357.44;7399017;19;20498;-54
2024/02/24 05:47:34;;;;;;;1.10;1.00;;;;;;;26.26;nan;97347.63;7397362;19;20047;-54
2024/02/24 05:50:00;;;;;;;0.38;0.35;;;;;;;26.25;nan;97357.56;7397707;19;20458;-54
2024/02/24 05:52:26;;;;;;;0.95;0.95;;;;;;;26.35;nan;97365.84;7400640;19;20010;-54
2024/02/24 05:54:52;;;;;;;7.22;1.17;;;;;;;26.22;nan;97353.16;7398269;19;20010;-54
2024/02/24 05:57:18;;;;;;;3.22;0.75;;;;;;;26.17;nan;97362.91;7398037;19;20011;-54
2024/02/24 05:59:45;;;;;;;1.02;0.98;;;;;;;26.26;nan;97355.44;7397448;19;20023;-54
2024/02/24 06:02:11;;;;;;;0.60;0.60;;;;;;;26.22;nan;97358.84;7399004;19;20350;-54
2024/02/24 06:04:38;;;;;;;4.60;0.63;;;;;;;25.96;nan;97359.72;7396529;19;20031;-54
2024/02/24 06:07:04;;;;;;;1.95;0.88;;;;;;;25.86;nan;97362.13;7396672;19;20802;-54
2024/02/24 06:09:30;;;;;;;1.20;0.90;;;;;;;25.63;nan;97368.13;7397250;19;20013;-54
2024/02/24 06:11:56;;;;;;;0.20;0.20;;;;;;;25.56;nan;97370.69;7398091;19;20032;-54
2024/02/24 06:14:23;;;;;;;1.65;1.20;;;;;;;26.06;nan;97374.44;7398117;19;20010;-54
2024/02/24 06:16:49;;;;;;;2.30;1.85;;;;;;;26.35;nan;97370.81;7396820;19;20066;-54
2024/02/24 06:19:15;;;;;;;7.30;1.13;;;;;;;26.59;nan;97372.66;7395640;19;20096;-54
2024/02/24 06:21:41;;;;;;;0.45;0.32;;;;;;;25.42;nan;97372.84;7395507;19;20019;-54
2024/02/24 06:24:07;;;;;;;1.83;1.73;;;;;;;24.99;nan;97383.50;7397572;19;20010;-54
2024/02/24 06:26:33;;;;;;;2.10;1.58;;;;;;;25.25;nan;97384.78;7396272;19;20026;-54
2024/02/24 06:28:59;;;;;;;2.38;1.13;;;;;;;25.22;nan;97383.22;7397312;19;20007;-54
2024/02/24 06:31:26;;;;;;;1.48;1.35;;;;;;;25.19;nan;97390.19;7398999;19;20018;-54
2024/02/24 06:33:53;;;;;;;1.52;1.35;;;;;;;25.14;nan;97388.53;7395764;19;20042;-54
2024/02/24 06:36:19;;;;;;;0.77;0.52;;;;;;;25.06;nan;97390.94;7397273;19;20010;-54
2024/02/24 06:38:45;;;;;;;0.90;0.90;;;;;;;25.16;nan;97390.72;7395987;19;20052;-54
2024/02/24 06:41:12;;;;;;;10.23;2.05;;;;;;;25.13;nan;97392.72;7394585;19;20018;-54
2024/02/24 06:43:38;;;;;;;3.67;1.60;;;;;;;25.18;nan;97394.41;7396278;19;20019;-54
2024/02/24 06:46:04;;;;;;;2.13;1.73;;;;;;;26.09;nan;97396.03;7399959;19;20006;-54
2024/02/24 06:48:30;;;;;;;0.75;0.70;;;;;;;26.28;nan;97398.34;7396048;19;20093;-54
2024/02/24 06:50:56;;;;;;;0.40;0.40;;;;;;;26.32;nan;97401.38;7395549;19;20091;-54
2024/02/24 06:53:22;;;;;;;2.95;1.52;;;;;;;26.19;nan;97405.78;7395744;19;20029;-54
2024/02/24 06:55:48;;;;;;;1.05;1.02;;;;;;;26.09;nan;97413.88;7394909;19;20348;-54
2024/02/24 06:58:15;;;;;;;4.70;1.88;;;;;;;25.93;nan;97418.03;7393666;19;20021;-54
2024/02/24 07:00:41;;;;;;;5.40;1.45;;;;;;;25.96;nan;97411.06;7394667;19;20015;-54
2024/02/24 07:03:07;;;;;;;3.05;1.10;;;;;;;26.23;nan;97416.66;7394569;19;20027;-54
2024/02/24 07:05:33;;;;;;;2.03;1.10;;;;;;;26.42;nan;97421.09;7392163;19;20466;-54
2024/02/24 07:07:59;;;;;;;8.07;1.70;;;;;;;26.36;nan;97424.38;7394670;19;20414;-54
2024/02/24 07:10:25;;;;;;;2.20;1.15;;;;;;;26.07;nan;97433.00;7395932;19;20027;-54
2024/02/24 07:12:51;;;;;;;2.28;1.55;;;;;;;25.96;nan;97434.63;7394578;19;20010;-54
2024/02/24 07:15:17;;;;;;;1.50;1.40;;;;;;;25.82;nan;97439.63;7397672;19;20944;-54
2024/02/24 07:17:43;;;;;;;0.50;0.50;;;;;;;25.74;nan;97458.47;7395660;19;20015;-54
2024/02/24 07:20:10;;;;;;;9.43;1.70;;;;;;;25.63;nan;97457.25;7395291;19;20010;-54
2024/02/24 07:22:36;;;;;;;1.60;1.23;;;;;;;25.67;nan;97470.94;7393637;19;20024;-54
2024/02/24 07:25:03;;;;;;;2.60;1.77;;;;;;;25.54;nan;97464.66;7392687;19;20025;-54
2024/02/24 07:27:29;;;;;;;0.95;0.95;;;;;;;25.71;nan;97466.19;7394245;19;20029;-54
2024/02/24 07:29:55;;;;;;;6.88;1.65;;;;;;;25.84;nan;97471.09;7394428;19;20014;-54
2024/02/24 07:32:21;;;;;;;4.55;1.65;;;;;;;25.86;nan;97464.78;7397540;19;20025;-54
2024/02/24 07:34:48;;;;;;;1.77;1.58;;;;;;;25.70;nan;97469.69;7395214;19;20015;-54
2024/02/24 07:37:14;;;;;;;20.25;1.67;;;;;;;25.82;nan;97467.41;7392145;19;20466;-54
2024/02/24 07:39:40;;;;;;;1.98;1.45;;;;;;;25.89;nan;97480.59;7394065;19;20021;-54
2024/02/24 07:42:06;;;;;;;5.20;1.55;;;;;;;25.84;nan;97488.22;7393644;19;20018;-54
2024/02/24 07:44:32;;;;;;;19.80;3.00;;;;;;;25.56;nan;97495.38;7394363;19;20014;-54
2024/02/24 07:46:58;;;;;;;0.70;0.70;;;;;;;25.48;nan;97497.81;7392888;19;20014;-54
2024/02/24 07:49:24;;;;;;;2.72;1.40;;;;;;;25.90;nan;97499.19;7393795;19;20006;-54
2024/02/24 07:51:51;;;;;;;2.83;1.48;;;;;;;25.64;nan;97507.19;7393300;19;20047;-54
2024/02/24 07:54:17;;;;;;;0.52;0.50;;;;;;;25.82;nan;97510.19;7393341;19;20022;-54
2024/02/24 07:56:43;;;;;;;2.05;1.92;;;;;;;25.83;nan;97517.38;7393376;19;20010;-54
2024/02/24 07:59:09;;;;;;;2.03;0.90;;;;;;;26.13;nan;97521.75;7397854;19;20019;-54
2024/02/24 08:01:35;;;;;;;1.67;1.33;;;;;;;26.34;nan;97532.75;7393020;19;20561;-54
2024/02/24 08:04:01;;;;;;;9.52;1.35;;;;;;;26.85;nan;97525.22;7392430;19;20054;-54
2024/02/24 08:06:27;;;;;;;6.20;3.30;;;;;;;27.12;nan;97529.25;7393045;19;20010;-54
2024/02/24 08:08:53;;;;;;;23.95;2.15;;;;;;;27.32;nan;97544.44;7392534;19;20007;-54
2024/02/24 08:11:20;;;;;;;1.85;0.68;;;;;;;27.63;nan;97542.28;7397531;19;20015;-54
2024/02/24 08:13:46;;;;;;;1.15;1.05;;;;;;;27.86;nan;97543.97;7392694;19;20010;-54
2024/02/24 08:16:12;;;;;;;0.63;0.63;;;;;;;27.99;nan;97539.50;7397584;19;20015;-53
2024/02/24 08:18:39;;;;;;;1.73;1.58;;;;;;;28.40;nan;97537.63;7393034;19;20015;-54
2024/02/24 08:21:06;;;;;;;14.07;2.72;;;;;;;28.32;nan;97551.63;7395240;19;20015;-54
2024/02/24 08:23:34;;;;;;;1.08;0.73;;;;;;;28.30;nan;97550.81;7392674;19;20050;-54
2024/02/24 08:26:00;;;;;;;5.68;2.30;;;;;;;28.11;nan;97548.59;7391183;19;20006;-54
2024/02/24 08:28:27;;;;;;;0.88;0.70;;;;;;;28.12;nan;97550.06;7392259;19;20475;-54
2024/02/24 08:30:53;;;;;;;3.20;1.65;;;;;;;28.39;nan;97546.88;7393101;19;20022;-54
2024/02/24 08:33:22;;;;;;;1.35;1.20;;;;;;;28.73;nan;97556.84;7395482;19;20465;-54
2024/02/24 08:35:49;;;;;;;9.20;3.03;;;;;;;28.78;nan;97563.50;7392385;19;20003;-54
2024/02/24 08:38:17;;;;;;;1.38;1.02;;;;;;;28.20;nan;97567.56;7392474;19;20006;-54
2024/02/24 08:40:43;;;;;;;1.77;1.63;;;;;;;28.08;nan;97562.09;7392217;19;20084;-54
2024/02/24 08:43:09;;;;;;;3.08;1.70;;;;;;;28.86;nan;97567.41;7391482;19;20011;-54
2024/02/24 08:45:35;;;;;;;1.55;1.45;;;;;;;28.96;nan;97567.03;7394640;19;20023;-54
2024/02/24 08:48:02;;;;;;;8.15;3.80;;;;;;;28.31;nan;97572.31;7392813;19;20014;-54
2024/02/24 08:50:28;;;;;;;12.95;2.53;;;;;;;27.37;nan;97563.28;7392317;19;20014;-54
2024/02/24 08:52:54;;;;;;;2.90;1.33;;;;;;;26.71;nan;97581.66;7391857;19;20021;-54
2024/02/24 08:55:21;;;;;;;6.43;2.15;;;;;;;25.50;nan;97586.28;7391572;19;20037;-54
2024/02/24 08:57:47;;;;;;;3.97;2.30;;;;;;;25.14;nan;97585.09;7397833;19;20086;-54
2024/02/24 09:00:13;;;;;;;3.08;2.70;;;;;;;25.21;nan;97589.72;7399311;19;20014;-54
2024/02/24 09:02:39;;;;;;;2.83;2.47;;;;;;;24.61;nan;97587.13;7397058;19;20166;-54
2024/02/24 09:05:06;;;;;;;2.20;1.60;;;;;;;24.42;nan;97578.97;7396742;19;20385;-53
2024/02/24 09:07:32;;;;;;;0.50;0.50;;;;;;;25.10;nan;97576.31;7401605;19;20033;-54
2024/02/24 09:09:58;;;;;;;2.63;2.42;;;;;;;24.51;nan;97588.69;7398315;19;20068;-54
2024/02/24 09:12:25;;;;;;;1.15;1.15;;;;;;;24.98;nan;97584.22;7398378;19;20014;-53
2024/02/24 09:14:51;;;;;;;3.85;1.60;;;;;;;24.94;nan;97580.41;7401040;19;20018;-54
2024/02/24 09:17:17;;;;;;;1.38;1.27;;;;;;;24.13;nan;97580.84;7398644;19;20470;-54
2024/02/24 09:19:43;;;;;;;11.10;3.95;;;;;;;22.37;nan;97584.25;7402376;19;20015;-54
2024/02/24 09:22:13;;;;;;;2.97;2.08;;;;;;;22.00;nan;97579.69;7398495;19;20006;-54
2024/02/24 09:24:39;;;;;;;3.17;2.30;;;;;;;21.36;nan;97581.72;7397528;19;20015;-54
2024/02/24 09:27:05;;;;;;;2.03;1.85;;;;;;;22.31;nan;97575.34;7399549;19;20015;-54
2024/02/24 09:29:31;;;;;;;3.80;2.03;;;;;;;21.67;nan;97582.44;7397084;19;20013;-54
2024/02/24 09:31:57;;;;;;;2.30;2.20;;;;;;;21.43;nan;97587.22;7397870;19;20007;-54
2024/02/24 09:34:23;;;;;;;3.25;2.42;;;;;;;21.30;nan;97593.41;7394429;19;20010;-54
2024/02/24 09:36:49;;;;;;;3.30;2.65;;;;;;;22.17;nan;97594.31;7393824;19;20019;-54
2024/02/24 09:39:16;;;;;;;4.38;2.75;;;;;;;21.58;nan;97598.16;7396436;19;20014;-54
2024/02/24 09:41:42;;;;;;;5.70;2.15;;;;;;;21.24;nan;97609.97;7394684;19;20026;-54
2024/02/24 09:44:09;;;;;;;1.70;1.58;;;;;;;21.24;nan;97603.56;7393491;19;20010;-54
2024/02/24 09:46:37;;;;;;;1.45;1.35;;;;;;;21.61;nan;97607.53;7395295;19;20014;-54
2024/02/24 09:49:04;;;;;;;2.28;1.80;;;;;;;21.99;nan;97604.44;7399291;19;20011;-54
2024/02/24 09:51:33;;;;;;;1.45;1.35;;;;;;;22.47;nan;97593.44;7397646;19;20004;-54
2024/02/24 09:53:59;;;;;;;6.32;2.88;;;;;;;21.92;nan;97599.00;7397792;19;20019;-54
2024/02/24 09:56:25;;;;;;;3.83;1.30;;;;;;;21.86;nan;97600.06;7397237;19;20022;-54
2024/02/24 09:58:55;;;;;;;6.07;2.15;;;;;;;21.78;nan;97605.19;7397570;19;20031;-54
2024/02/24 10:01:22;;;;;;;0.90;0.88;;;;;;;21.73;nan;97608.34;7396048;19;20036;-53
2024/02/24 10:03:49;;;;;;;1.40;0.40;;;;;;;21.67;nan;97608.69;7397016;19;20022;-54
2024/02/24 10:06:16;;;;;;;4.72;1.52;;;;;;;21.13;nan;97617.03;7396757;19;20010;-54
2024/02/24 10:08:42;;;;;;;1.45;1.13;;;;;;;20.80;nan;97618.91;7395246;19;20359;-54
2024/02/24 10:11:13;;;;;;;3.13;1.05;;;;;;;21.66;nan;97626.25;7393365;19;20010;-55
2024/02/24 10:13:39;;;;;;;0.80;0.80;;;;;;;22.93;nan;97620.44;7395574;19;20014;-54
2024/02/24 10:16:06;;;;;;;0.55;0.52;;;;;;;23.27;nan;97626.16;7400481;19;20022;-54
2024/02/24 10:18:32;;;;;;;0.75;0.75;;;;;;;21.91;nan;97635.09;7395286;19;20011;-54
2024/02/24 10:20:58;;;;;;;3.55;1.42;;;;;;;22.08;nan;97636.91;7396838;19;20483;-53
2024/02/24 10:23:25;;;;;;;1.20;1.10;;;;;;;22.09;nan;97639.13;7396149;19;20007;-53
2024/02/24 10:25:53;;;;;;;3.70;0.88;;;;;;;22.40;nan;97636.94;7394736;19;20010;-53
2024/02/24 10:28:19;;;;;;;2.45;1.15;;;;;;;22.16;nan;97643.84;7395252;19;20066;-54
2024/02/24 10:30:47;;;;;;;5.10;1.27;;;;;;;22.08;nan;97637.66;7396328;19;20470;-53
2024/02/24 10:33:14;;;;;;;0.93;0.93;;;;;;;21.99;nan;97634.88;7395813;19;20015;-53
2024/02/24 10:35:40;;;;;;;1.58;1.48;;;;;;;22.09;nan;97641.94;7394903;19;20029;-53
2024/02/24 10:38:07;;;;;;;16.02;1.70;;;;;;;22.08;nan;97640.50;7395616;19;20026;-53
2024/02/24 10:40:35;;;;;;;3.35;1.70;;;;;;;22.08;nan;97646.16;7395352;19;20023;-53
2024/02/24 10:43:04;;;;;;;4.13;1.85;;;;;;;22.50;nan;97654.59;7399207;19;20745;-53
2024/02/24 10:45:30;;;;;;;9.82;1.48;;;;;;;22.69;nan;97652.97;7397475;19;20020;-53
2024/02/24 10:47:57;;;;;;;2.28;1.52;;;;;;;23.28;nan;97647.50;7395769;19;20027;-53
2024/02/24 10:50:23;;;;;;;4.47;2.10;;;;;;;23.73;nan;97648.16;7395187;19;20018;-53
2024/02/24 10:52:51;;;;;;;1.35;1.27;;;;;;;24.16;nan;97645.00;7399191;19;20432;-53
2024/02/24 10:55:21;;;;;;;1.00;0.93;;;;;;;24.78;nan;97645.72;7395997;19;20014;-53
2024/02/24 10:57:47;;;;;;;0.93;0.93;;;;;;;24.57;nan;97648.78;7395603;19;20066;-53
2024/02/24 11:00:34;;;;;;;0.65;0.65;;;;;;;24.69;nan;97649.47;7394961;19;20010;-53
2024/02/24 11:03:01;;;;;;;0.98;0.98;;;;;;;24.63;nan;97651.97;7396994;19;20033;-53
2024/02/24 11:05:31;;;;;;;2.15;1.15;;;;;;;25.09;nan;97654.59;7390302;19;20007;-53
2024/02/24 11:07:57;;;;;;;1.35;1.25;;;;;;;25.03;nan;97662.81;7391744;19;20018;-53
2024/02/24 11:10:32;;;;;;;0.80;0.80;;;;;;;25.31;nan;97652.97;7391102;19;20021;-53
2024/02/24 11:13:01;;;;;;;0.55;0.50;;;;;;;25.44;nan;97654.38;7393962;19;20021;-53
2024/02/24 11:15:27;;;;;;;2.00;1.08;;;;;;;24.97;nan;97653.91;7394316;19;20010;-53
2024/02/24 11:17:58;;;;;;;1.05;0.95;;;;;;;25.03;nan;97662.81;7392586;19;20007;-53
2024/02/24 11:20:39;;;;;;;9.40;0.60;;;;;;;24.89;nan;97658.41;7394038;19;20011;-53
2024/02/24 11:23:24;;;;;;;1.77;1.02;;;;;;;24.33;nan;97661.63;7396563;19;20962;-54
2024/02/24 11:26:09;;;;;;;0.98;0.60;;;;;;;24.13;nan;97666.16;7392565;19;20011;-54
2024/02/24 11:28:44;;;;;;;2.28;0.63;;;;;;;24.05;nan;97667.16;7394414;19;20014;-54
2024/02/24 11:31:29;;;;;;;2.45;1.23;;;;;;;24.89;nan;97666.97;7395965;19;20066;-54
2024/02/24 11:34:11;;;;;;;0.20;0.20;;;;;;;24.83;nan;97668.13;7394797;19;20035;-55
2024/02/24 11:36:39;;;;;;;3.40;0.88;;;;;;;25.35;nan;97673.13;7393577;19;20363;-54
2024/02/24 11:39:14;;;;;;;1.08;0.40;;;;;;;25.55;nan;97671.34;7393803;19;20011;-55
2024/02/24 11:41:40;;;;;;;0.40;0.40;;;;;;;25.83;nan;97674.25;7393796;19;20018;-54
2024/02/24 11:44:07;;;;;;;3.20;0.40;;;;;;;25.56;nan;97667.16;7392885;19;20003;-54
2024/02/24 11:46:35;;;;;;;2.60;0.88;;;;;;;25.38;nan;97677.53;7394629;19;20031;-52